Time;durP1;ratioP1;P1;durP2;ratioP2;P2;SDS_P1;SDS_P2;PMS_P1;PMS_P2;Temp;Humidity;BMP_temperature;BMP_pressure;BME280_temperature;BME280_humidity;BME280_pressure;Samples;Min_cycle;Max_cycle;Signal;HPM_P1;HPM_P2
2023/07/10 00:00:58;;;;;;;3.30;1.40;;;;;;;21.97;63.44;99994.81;5051204;28;20110;-78
2023/07/10 00:03:24;;;;;;;2.70;1.85;;;;;;;21.86;62.96;99984.69;5050047;28;20395;-79
2023/07/10 00:05:49;;;;;;;1.80;0.90;;;;;;;21.81;61.91;99984.06;5051709;28;20048;-79
2023/07/10 00:08:15;;;;;;;2.17;1.75;;;;;;;21.70;61.45;99992.72;5051772;28;20465;-79
2023/07/10 00:10:41;;;;;;;2.40;1.30;;;;;;;21.46;63.89;100019.97;5051603;28;20164;-78
2023/07/10 00:13:10;;;;;;;3.10;1.88;;;;;;;21.23;63.37;99978.31;5052130;28;20045;-78
2023/07/10 00:15:36;;;;;;;1.80;1.35;;;;;;;21.44;63.78;100018.31;5051232;28;20522;-78
2023/07/10 00:18:10;;;;;;;3.55;1.85;;;;;;;21.46;63.57;99990.44;5052078;28;20029;-78
2023/07/10 00:20:36;;;;;;;4.93;1.45;;;;;;;21.52;63.75;100013.44;5049363;28;20477;-78
2023/07/10 00:23:01;;;;;;;1.52;1.20;;;;;;;21.46;64.10;100016.44;5051103;28;20037;-78
2023/07/10 00:25:27;;;;;;;2.03;1.52;;;;;;;21.29;64.04;99980.66;5017362;28;20099;-78
2023/07/10 00:27:53;;;;;;;2.65;1.80;;;;;;;21.36;62.72;100001.78;5033515;28;20033;-78
2023/07/10 00:30:22;;;;;;;1.25;1.02;;;;;;;21.52;62.58;100009.88;5051573;28;20078;-78
2023/07/10 00:32:52;;;;;;;3.33;1.23;;;;;;;21.46;62.50;99982.41;5052047;28;20037;-77
2023/07/10 00:35:24;;;;;;;3.80;1.58;;;;;;;21.62;61.96;100006.59;5051677;28;20510;-77
2023/07/10 00:38:01;;;;;;;1.23;1.13;;;;;;;21.77;61.80;100006.69;5051845;28;20036;-78
2023/07/10 00:40:28;;;;;;;3.15;1.40;;;;;;;21.63;62.10;99983.31;5051468;28;20461;-79
2023/07/10 00:43:10;;;;;;;6.63;1.83;;;;;;;21.56;62.12;99985.47;5051718;28;20042;-78
2023/07/10 00:45:36;;;;;;;6.32;1.63;;;;;;;21.49;62.30;99973.34;5051596;28;20036;-78
2023/07/10 00:48:28;;;;;;;3.97;1.65;;;;;;;21.67;62.09;99986.69;5051121;28;20111;-78
2023/07/10 00:50:55;;;;;;;4.25;1.38;;;;;;;21.55;62.27;99983.75;5051163;28;20033;-78
2023/07/10 00:53:28;;;;;;;2.92;1.45;;;;;;;21.39;63.13;99959.53;5051087;28;20029;-79
2023/07/10 00:55:57;;;;;;;2.08;1.30;;;;;;;21.69;62.39;99995.50;5051347;28;20033;-78
2023/07/10 00:58:26;;;;;;;2.38;1.33;;;;;;;21.61;62.65;99990.56;5051547;28;20500;-77
2023/07/10 01:01:10;;;;;;;1.70;1.17;;;;;;;21.79;62.69;100007.47;5050988;28;20502;-78
2023/07/10 01:03:37;;;;;;;1.77;1.17;;;;;;;21.38;63.33;99963.19;5049878;28;20036;-78
2023/07/10 01:06:10;;;;;;;2.17;1.23;;;;;;;21.72;63.19;100006.06;5051487;28;20455;-77
2023/07/10 01:08:40;;;;;;;2.15;1.10;;;;;;;21.66;63.46;99993.88;5051076;28;20033;-78
2023/07/10 01:11:05;;;;;;;1.70;1.42;;;;;;;21.50;63.42;99977.75;5050883;28;20033;-77
2023/07/10 01:13:31;;;;;;;2.08;1.02;;;;;;;21.46;64.31;99994.97;5049398;28;20057;-77
2023/07/10 01:15:57;;;;;;;1.35;1.00;;;;;;;21.60;63.70;99991.53;5050416;28;20068;-78
2023/07/10 01:18:24;;;;;;;2.78;1.92;;;;;;;21.38;63.63;99976.59;5050852;28;20064;-78
2023/07/10 01:21:00;;;;;;;2.17;1.58;;;;;;;21.31;64.14;99980.56;5050708;28;20059;-77
2023/07/10 01:23:26;;;;;;;2.60;1.10;;;;;;;21.35;64.22;99975.88;5032401;28;20067;-77
2023/07/10 01:25:58;;;;;;;1.75;1.50;;;;;;;21.27;64.21;99969.16;5050780;28;20057;-77
2023/07/10 01:28:24;;;;;;;2.67;1.55;;;;;;;21.23;64.54;99981.00;5050457;28;20454;-78
2023/07/10 01:30:53;;;;;;;2.15;1.70;;;;;;;21.22;63.89;99981.06;5050816;28;20029;-77
2023/07/10 01:33:27;;;;;;;1.25;1.02;;;;;;;21.31;63.11;100002.03;5050799;28;20033;-78
2023/07/10 01:35:57;;;;;;;2.15;1.60;;;;;;;21.14;62.86;99965.41;5049738;28;20086;-78
2023/07/10 01:38:31;;;;;;;2.60;1.45;;;;;;;21.37;62.97;100008.88;5051200;28;20021;-77
2023/07/10 01:41:02;;;;;;;5.47;2.25;;;;;;;21.30;63.12;100008.34;5050179;28;20040;-77
2023/07/10 01:43:27;;;;;;;3.90;1.52;;;;;;;21.31;63.21;99996.66;5050191;28;20032;-77
2023/07/10 01:45:53;;;;;;;5.25;2.55;;;;;;;21.02;64.41;99979.47;5032007;28;20049;-77
2023/07/10 01:48:24;;;;;;;2.17;1.25;;;;;;;21.27;63.82;99992.41;5050107;28;20029;-77
2023/07/10 01:50:49;;;;;;;4.15;1.27;;;;;;;21.00;63.78;99976.00;5050491;28;20098;-77
2023/07/10 01:53:15;;;;;;;1.08;1.00;;;;;;;20.74;64.30;99986.31;5050439;28;20419;-77
2023/07/10 01:55:44;;;;;;;4.20;2.28;;;;;;;20.84;64.33;100002.78;5050445;28;20033;-77
2023/07/10 01:58:14;;;;;;;2.75;1.35;;;;;;;20.64;64.64;99988.56;5050110;28;20071;-78
2023/07/10 02:00:40;;;;;;;2.97;1.88;;;;;;;20.38;65.42;99969.34;5050000;28;20123;-78
2023/07/10 02:03:07;;;;;;;3.80;1.50;;;;;;;20.29;66.44;99977.00;5050387;28;20035;-78
2023/07/10 02:05:32;;;;;;;1.67;0.88;;;;;;;20.27;66.97;99982.44;5050062;28;20403;-77
2023/07/10 02:07:58;;;;;;;5.25;2.13;;;;;;;20.18;67.15;99959.66;5049531;28;20036;-80
2023/07/10 02:10:24;;;;;;;0.95;0.95;;;;;;;20.59;66.99;100017.44;5050235;28;20029;-78
2023/07/10 02:12:49;;;;;;;2.40;1.60;;;;;;;20.60;67.28;100007.56;5050069;28;20044;-78
2023/07/10 02:15:15;;;;;;;3.40;1.92;;;;;;;20.48;67.12;99990.31;5049926;28;20140;-78
2023/07/10 02:17:40;;;;;;;2.78;1.38;;;;;;;20.66;66.56;100001.94;5049675;28;20025;-78
2023/07/10 02:20:06;;;;;;;1.65;1.08;;;;;;;20.50;65.83;99991.97;5050278;28;20033;-78
2023/07/10 02:22:32;;;;;;;2.80;1.35;;;;;;;20.33;66.33;99982.13;5048766;28;20040;-78
2023/07/10 02:24:57;;;;;;;1.23;1.00;;;;;;;20.38;66.23;99990.78;5049546;28;20040;-78
2023/07/10 02:27:23;;;;;;;1.55;1.00;;;;;;;20.47;66.58;99986.75;5050038;28;20455;-78
2023/07/10 02:29:48;;;;;;;2.15;1.40;;;;;;;20.42;67.00;99999.53;5049213;28;20045;-78
2023/07/10 02:32:14;;;;;;;3.03;2.03;;;;;;;20.49;66.28;100008.97;5049706;28;20410;-78
2023/07/10 02:34:39;;;;;;;3.03;2.05;;;;;;;20.26;66.74;100012.81;5049465;28;20036;-78
2023/07/10 02:37:05;;;;;;;1.73;1.20;;;;;;;20.12;66.54;100004.63;5049870;28;20467;-78
2023/07/10 02:39:30;;;;;;;1.77;1.20;;;;;;;20.14;66.11;100000.03;5049781;28;20051;-78
2023/07/10 02:41:56;;;;;;;1.63;1.50;;;;;;;19.87;67.25;99999.63;5050057;28;20033;-78
2023/07/10 02:44:21;;;;;;;1.38;0.90;;;;;;;20.01;67.43;100013.19;5049406;28;20108;-78
2023/07/10 02:46:46;;;;;;;3.05;1.52;;;;;;;19.97;67.31;99998.19;5049994;28;20094;-78
2023/07/10 02:49:12;;;;;;;5.32;2.00;;;;;;;20.17;67.72;100002.56;5048366;28;20033;-78
2023/07/10 02:51:37;;;;;;;1.27;1.17;;;;;;;20.20;67.76;100003.31;5049662;28;20032;-80
2023/07/10 02:54:13;;;;;;;2.38;1.50;;;;;;;20.17;66.97;99998.09;5049393;28;20048;-80
2023/07/10 02:56:39;;;;;;;2.03;1.33;;;;;;;20.16;67.00;100017.78;5049147;28;20128;-78
2023/07/10 02:59:05;;;;;;;4.78;1.33;;;;;;;20.20;66.17;100011.34;5028167;28;20026;-78
2023/07/10 03:01:30;;;;;;;2.05;1.67;;;;;;;20.14;66.96;100017.00;5029782;28;20091;-78
2023/07/10 03:03:56;;;;;;;3.17;2.08;;;;;;;20.13;66.76;100015.25;5044720;28;20116;-79
2023/07/10 03:06:23;;;;;;;1.75;1.30;;;;;;;20.24;66.76;100020.06;5049254;28;20029;-78
2023/07/10 03:08:50;;;;;;;2.65;1.92;;;;;;;20.23;66.07;99991.56;5049488;28;20836;-80
2023/07/10 03:11:16;;;;;;;4.28;1.50;;;;;;;20.19;66.06;99998.03;5049246;28;20031;-79
2023/07/10 03:13:42;;;;;;;1.88;1.10;;;;;;;20.07;65.30;99980.75;5049407;28;20045;-78
2023/07/10 03:16:10;;;;;;;6.53;1.75;;;;;;;20.03;66.72;100020.22;5049020;28;20037;-78
2023/07/10 03:18:36;;;;;;;1.65;1.55;;;;;;;19.89;66.67;100003.94;5049341;28;20113;-78
2023/07/10 03:21:02;;;;;;;2.33;1.55;;;;;;;20.15;67.12;100036.59;5049114;28;20053;-78
2023/07/10 03:23:27;;;;;;;2.47;1.15;;;;;;;20.04;66.71;100037.13;5047935;28;20471;-79
2023/07/10 03:25:53;;;;;;;3.55;1.95;;;;;;;20.07;66.64;100031.63;5047206;28;20017;-78
2023/07/10 03:28:18;;;;;;;2.47;1.17;;;;;;;19.92;67.00;100016.31;5048336;28;20143;-77
2023/07/10 03:30:44;;;;;;;3.17;1.25;;;;;;;20.17;67.41;100053.44;5048672;28;20029;-79
2023/07/10 03:33:12;;;;;;;2.55;1.20;;;;;;;20.10;67.36;100042.19;5046220;28;20033;-79
2023/07/10 03:35:37;;;;;;;3.28;2.00;;;;;;;20.36;66.78;100056.09;5050470;28;20407;-79
2023/07/10 03:38:03;;;;;;;3.13;2.03;;;;;;;20.29;66.74;100038.59;5051591;28;20036;-79
2023/07/10 03:40:28;;;;;;;3.38;1.83;;;;;;;20.31;66.43;100034.91;5051648;28;20041;-78
2023/07/10 03:42:54;;;;;;;2.13;1.55;;;;;;;20.56;65.86;100045.25;5051334;28;20017;-79
2023/07/10 03:45:19;;;;;;;2.97;1.65;;;;;;;20.72;66.28;100060.56;5051510;28;20036;-79
2023/07/10 03:47:45;;;;;;;3.47;2.20;;;;;;;20.73;66.59;100065.84;5051619;28;20041;-79
2023/07/10 03:50:10;;;;;;;3.25;1.88;;;;;;;20.73;66.02;100025.66;5051433;28;20083;-79
2023/07/10 03:52:36;;;;;;;3.10;1.70;;;;;;;20.90;66.11;100058.75;5050210;28;20423;-78
2023/07/10 03:55:01;;;;;;;2.85;1.27;;;;;;;20.86;65.95;100058.03;5052317;28;20031;-80
2023/07/10 03:57:27;;;;;;;2.00;1.60;;;;;;;21.22;64.94;100053.50;5052886;28;20037;-79
2023/07/10 03:59:53;;;;;;;1.27;1.10;;;;;;;21.10;65.54;100057.69;5052679;28;20530;-79
2023/07/10 04:02:18;;;;;;;3.08;1.17;;;;;;;20.87;65.58;100035.66;5052624;28;20556;-79
2023/07/10 04:04:43;;;;;;;2.08;1.85;;;;;;;21.12;65.48;100055.81;5050784;28;20033;-78
2023/07/10 04:07:09;;;;;;;3.20;1.95;;;;;;;21.26;64.34;100052.41;5052550;28;20053;-78
2023/07/10 04:09:35;;;;;;;2.88;1.60;;;;;;;21.25;63.92;100037.25;5049899;28;20032;-79
2023/07/10 04:12:00;;;;;;;2.15;1.38;;;;;;;21.54;63.86;100048.25;5051012;28;20025;-78
2023/07/10 04:14:25;;;;;;;4.25;2.45;;;;;;;21.58;63.85;100041.72;5048284;28;20029;-78
2023/07/10 04:16:52;;;;;;;3.13;2.35;;;;;;;21.53;65.49;100054.56;5052200;28;20032;-79
2023/07/10 04:19:19;;;;;;;2.08;1.08;;;;;;;21.72;65.68;100070.50;5051260;28;20076;-78
2023/07/10 04:21:45;;;;;;;2.67;1.65;;;;;;;21.94;65.88;100064.81;5048410;28;20039;-79
2023/07/10 04:24:10;;;;;;;2.80;1.60;;;;;;;22.11;66.06;100061.19;5048032;28;20495;-78
2023/07/10 04:26:36;;;;;;;7.32;1.73;;;;;;;22.47;66.76;100077.00;5051738;28;20031;-78
2023/07/10 04:29:05;;;;;;;3.22;1.77;;;;;;;22.61;67.93;100086.94;5050253;28;20033;-77
2023/07/10 04:31:31;;;;;;;4.15;2.40;;;;;;;22.52;67.28;100068.66;5049110;28;20041;-78
2023/07/10 04:33:58;;;;;;;3.97;2.20;;;;;;;22.78;66.33;100068.97;5051863;28;20126;-78
2023/07/10 04:36:23;;;;;;;3.40;1.92;;;;;;;22.90;66.14;100087.03;5051276;28;20414;-78
2023/07/10 04:38:50;;;;;;;1.65;1.52;;;;;;;22.92;65.83;100036.69;5051715;28;20112;-78
2023/07/10 04:41:18;;;;;;;3.25;2.15;;;;;;;23.40;62.11;100077.75;5044132;28;20159;-79
2023/07/10 04:43:43;;;;;;;5.00;2.08;;;;;;;23.42;60.32;100067.72;5044803;28;20036;-78
2023/07/10 04:46:11;;;;;;;2.53;1.55;;;;;;;23.62;58.60;100081.78;5042848;28;20402;-78
2023/07/10 04:48:37;;;;;;;2.35;1.77;;;;;;;23.69;56.95;100082.25;5044122;28;20072;-78
2023/07/10 04:51:05;;;;;;;6.18;1.55;;;;;;;23.67;56.05;100070.72;5042745;28;20464;-79
2023/07/10 04:53:32;;;;;;;2.20;1.85;;;;;;;23.53;56.80;100067.06;5042990;28;20116;-78
2023/07/10 04:56:00;;;;;;;2.67;1.88;;;;;;;23.83;57.37;100090.28;5042658;28;20037;-79
2023/07/10 04:58:27;;;;;;;3.40;1.73;;;;;;;23.91;56.06;100062.91;5046022;28;20116;-80
2023/07/10 05:00:58;;;;;;;3.75;2.42;;;;;;;23.95;56.51;100065.28;5044956;28;20091;-80
2023/07/10 05:03:24;;;;;;;2.67;2.00;;;;;;;24.29;55.73;100081.94;5043277;28;20041;-84
2023/07/10 05:05:58;;;;;;;3.40;1.77;;;;;;;24.56;55.14;100086.50;5041896;28;20067;-84
2023/07/10 05:08:25;;;;;;;3.40;1.80;;;;;;;24.40;55.87;100083.06;5040660;28;20037;-84
2023/07/10 05:10:51;;;;;;;11.55;1.98;;;;;;;24.36;54.45;100086.94;5016524;28;20617;-84
2023/07/10 05:13:23;;;;;;;3.83;1.63;;;;;;;24.24;54.34;100078.69;5041350;28;20044;-85
2023/07/10 05:15:49;;;;;;;1.88;1.45;;;;;;;24.12;55.15;100061.50;5022528;28;20079;-83
2023/07/10 05:18:15;;;;;;;3.15;1.38;;;;;;;24.70;54.78;100066.72;5039756;28;20053;-83
2023/07/10 05:20:44;;;;;;;3.03;2.00;;;;;;;24.89;54.25;100062.75;5023882;28;20032;-83
2023/07/10 05:23:10;;;;;;;1.73;1.20;;;;;;;25.10;53.24;100081.97;5040531;28;20033;-83
2023/07/10 05:25:36;;;;;;;3.42;2.05;;;;;;;25.28;53.41;100066.31;5040569;28;20530;-85
2023/07/10 05:28:01;;;;;;;2.88;1.95;;;;;;;25.23;51.65;100079.28;5032913;28;20533;-83
2023/07/10 05:30:28;;;;;;;3.80;2.17;;;;;;;25.30;52.71;100077.91;5040596;28;20037;-84
2023/07/10 05:32:53;;;;;;;1.83;1.30;;;;;;;25.58;53.01;100057.91;5040985;28;20041;-83
2023/07/10 05:35:19;;;;;;;2.17;1.90;;;;;;;26.16;51.29;100071.72;5040573;28;20419;-84
2023/07/10 05:37:44;;;;;;;2.20;1.45;;;;;;;26.14;48.38;100045.81;5044229;28;20028;-83
2023/07/10 05:40:10;;;;;;;4.18;1.75;;;;;;;26.47;49.65;100044.22;5043876;28;20021;-83
2023/07/10 05:42:35;;;;;;;3.60;2.08;;;;;;;26.28;46.70;100064.53;5038441;28;20517;-84
2023/07/10 05:45:01;;;;;;;1.55;1.45;;;;;;;26.31;48.57;100056.19;5039114;28;20036;-85
2023/07/10 05:47:26;;;;;;;2.70;1.38;;;;;;;26.82;49.40;100056.91;5044504;28;20106;-83
2023/07/10 05:49:52;;;;;;;4.15;1.27;;;;;;;26.90;46.51;100043.66;5039074;28;20033;-84
2023/07/10 05:52:17;;;;;;;2.88;1.58;;;;;;;27.26;46.80;100079.66;5040558;28;20531;-83
2023/07/10 05:54:43;;;;;;;2.63;1.23;;;;;;;27.22;46.19;100054.66;5038204;28;20029;-85
2023/07/10 05:57:09;;;;;;;2.20;1.60;;;;;;;27.17;45.73;100056.84;5038626;28;20063;-84
2023/07/10 05:59:34;;;;;;;2.55;1.60;;;;;;;27.77;43.82;100078.34;5034199;28;20036;-86
2023/07/10 06:01:59;;;;;;;5.90;2.13;;;;;;;27.65;45.70;100074.75;5042898;28;20039;-82
2023/07/10 06:04:25;;;;;;;3.22;1.65;;;;;;;27.91;43.59;100036.56;5039520;28;20452;-83
2023/07/10 06:06:50;;;;;;;3.17;1.40;;;;;;;27.93;44.19;100065.28;5042659;28;20176;-84
2023/07/10 06:09:17;;;;;;;1.63;1.25;;;;;;;28.09;43.49;100078.44;5041283;28;20032;-86
2023/07/10 06:11:42;;;;;;;2.25;1.23;;;;;;;28.08;41.27;100052.31;5041338;28;20040;-86
2023/07/10 06:14:08;;;;;;;1.85;1.33;;;;;;;28.76;42.98;100081.94;5036537;28;20126;-82
2023/07/10 06:16:33;;;;;;;1.48;1.02;;;;;;;28.44;42.67;100063.81;5037495;28;20039;-82
2023/07/10 06:18:59;;;;;;;2.25;1.45;;;;;;;28.63;40.90;100060.44;5040120;28;20040;-81
2023/07/10 06:21:24;;;;;;;1.52;1.20;;;;;;;28.88;40.10;100067.31;5043383;28;20037;-84
2023/07/10 06:23:50;;;;;;;2.30;1.17;;;;;;;29.13;40.79;100070.63;5044065;28;20120;-81
2023/07/10 06:26:15;;;;;;;1.90;0.93;;;;;;;29.07;39.46;100034.03;5042764;28;20029;-82
2023/07/10 06:28:41;;;;;;;3.10;1.63;;;;;;;29.19;39.31;100066.53;5036424;28;20110;-82
2023/07/10 06:31:10;;;;;;;1.70;1.17;;;;;;;29.09;36.72;100014.88;5043851;28;20056;-82
2023/07/10 06:33:36;;;;;;;3.83;1.38;;;;;;;28.87;38.10;100021.31;5044785;28;20041;-82
2023/07/10 06:36:04;;;;;;;4.63;1.00;;;;;;;29.34;38.93;100073.38;5040579;28;20411;-81
2023/07/10 06:38:29;;;;;;;1.60;1.38;;;;;;;29.33;36.92;100059.91;5041056;28;20058;-86
2023/07/10 06:40:55;;;;;;;3.38;1.35;;;;;;;29.29;36.66;100062.91;5038994;28;20033;-83
2023/07/10 06:43:21;;;;;;;1.75;0.98;;;;;;;29.37;37.66;100054.06;5043033;28;20045;-83
2023/07/10 06:45:48;;;;;;;1.52;1.30;;;;;;;29.18;36.65;100034.91;5043071;28;20314;-82
2023/07/10 06:48:13;;;;;;;7.07;1.75;;;;;;;29.24;36.85;100048.00;5045230;28;20032;-84
2023/07/10 06:50:39;;;;;;;2.58;1.50;;;;;;;29.38;37.49;100042.22;5035771;28;20037;-83
2023/07/10 06:53:05;;;;;;;1.20;1.08;;;;;;;29.51;37.32;100038.41;5043374;28;21758;-81
2023/07/10 06:55:31;;;;;;;1.85;0.95;;;;;;;30.11;37.34;100050.19;5042192;28;20337;-82
2023/07/10 06:57:57;;;;;;;2.33;1.77;;;;;;;30.15;36.87;100059.81;5045133;28;20033;-83
2023/07/10 07:00:23;;;;;;;0.73;0.73;;;;;;;30.11;35.24;100019.44;5040174;28;20040;-82
2023/07/10 07:02:48;;;;;;;3.22;1.48;;;;;;;30.07;34.67;100026.13;5044555;28;20112;-81
2023/07/10 07:05:14;;;;;;;2.08;1.40;;;;;;;30.23;37.40;100040.06;5041233;28;20040;-81
2023/07/10 07:07:40;;;;;;;1.77;1.17;;;;;;;30.32;34.56;99992.06;5039173;28;20045;-82
2023/07/10 07:10:14;;;;;;;1.98;1.00;;;;;;;30.26;33.63;100019.84;5032153;28;20147;-86
2023/07/10 07:12:41;;;;;;;1.30;1.00;;;;;;;30.07;33.89;100035.16;5025150;28;20049;-82
2023/07/10 07:15:08;;;;;;;3.10;1.17;;;;;;;30.23;34.67;100040.06;5045297;28;20033;-84
2023/07/10 07:17:34;;;;;;;1.73;1.10;;;;;;;30.32;34.18;100025.59;5039077;28;20029;-81
2023/07/10 07:19:59;;;;;;;1.70;1.25;;;;;;;30.60;33.93;100042.09;5038547;28;20025;-81
2023/07/10 07:22:25;;;;;;;2.05;1.45;;;;;;;30.56;33.70;100050.69;5041077;28;20089;-82
2023/07/10 07:24:50;;;;;;;1.17;0.55;;;;;;;30.44;33.89;100028.19;5045452;28;20043;-83
2023/07/10 07:27:16;;;;;;;2.55;1.10;;;;;;;30.92;33.61;100048.22;5042310;28;20503;-84
2023/07/10 07:29:42;;;;;;;4.13;1.75;;;;;;;30.86;33.88;100046.94;5040363;28;20045;-85
2023/07/10 07:32:10;;;;;;;4.25;1.55;;;;;;;31.01;33.74;100029.16;5042727;28;20047;-83
2023/07/10 07:34:35;;;;;;;0.77;0.68;;;;;;;31.15;32.66;100014.22;5046456;28;20052;-84
2023/07/10 07:37:01;;;;;;;1.88;1.17;;;;;;;31.25;33.11;100019.66;5044921;28;20037;-83
2023/07/10 07:39:30;;;;;;;2.45;1.23;;;;;;;31.17;33.66;99995.00;5045046;28;20479;-83
2023/07/10 07:41:56;;;;;;;3.00;1.55;;;;;;;31.19;32.09;100003.91;5044575;28;20044;-83
2023/07/10 07:44:22;;;;;;;1.48;0.60;;;;;;;31.49;32.73;100005.47;5029777;28;20049;-84
2023/07/10 07:46:47;;;;;;;2.65;1.45;;;;;;;31.82;34.88;100032.31;5044556;28;20104;-86
2023/07/10 07:49:13;;;;;;;1.98;1.00;;;;;;;31.75;31.71;99999.34;5046485;28;20116;-83
2023/07/10 07:51:38;;;;;;;1.17;0.88;;;;;;;31.60;32.30;100015.34;5043077;28;20476;-85
2023/07/10 07:54:09;;;;;;;3.97;1.20;;;;;;;31.53;33.28;100028.69;5045600;28;20040;-83
2023/07/10 07:56:34;;;;;;;2.08;1.25;;;;;;;30.93;32.47;99966.38;5042434;28;20040;-83
2023/07/10 07:59:00;;;;;;;1.30;0.95;;;;;;;31.56;33.91;100014.81;5048488;28;20033;-85
2023/07/10 08:01:26;;;;;;;2.00;1.27;;;;;;;31.90;32.13;100029.66;5044479;28;20025;-83
2023/07/10 08:03:52;;;;;;;0.60;0.57;;;;;;;31.86;31.79;100020.09;5046403;28;20043;-83
2023/07/10 08:06:17;;;;;;;1.45;1.10;;;;;;;31.99;32.99;100006.91;5042502;28;20059;-83
2023/07/10 08:08:44;;;;;;;2.28;1.48;;;;;;;31.80;31.81;100010.66;5045926;28;20044;-86
2023/07/10 08:11:09;;;;;;;2.60;1.27;;;;;;;32.51;36.14;100000.81;5041803;28;20604;-85
2023/07/10 08:13:35;;;;;;;3.10;1.00;;;;;;;32.64;31.30;99995.84;5047402;28;20139;-86
2023/07/10 08:16:00;;;;;;;1.23;0.98;;;;;;;32.48;30.89;99968.38;5040425;28;20055;-85
2023/07/10 08:18:26;;;;;;;2.75;1.10;;;;;;;32.47;31.82;100004.84;5026818;28;20029;-84
2023/07/10 08:21:00;;;;;;;7.68;1.73;;;;;;;32.61;29.91;99977.00;5041924;28;20044;-85
2023/07/10 08:23:25;;;;;;;1.27;0.98;;;;;;;32.60;30.63;99978.00;5043676;28;20098;-83
2023/07/10 08:25:50;;;;;;;1.95;1.75;;;;;;;33.05;31.37;99997.13;5047643;28;20451;-83
2023/07/10 08:28:16;;;;;;;3.08;1.77;;;;;;;33.79;31.13;99986.59;5042451;28;20180;-83
2023/07/10 08:30:41;;;;;;;1.92;1.42;;;;;;;33.39;31.08;99966.25;5046260;28;20040;-84
2023/07/10 08:33:07;;;;;;;2.15;1.30;;;;;;;33.64;33.70;99987.19;5044226;28;20033;-84
2023/07/10 08:35:32;;;;;;;1.73;0.95;;;;;;;33.66;30.14;99973.34;5043322;28;20045;-83
2023/07/10 08:37:58;;;;;;;4.43;1.42;;;;;;;33.81;29.23;99977.19;5046130;28;20035;-82
2023/07/10 08:40:35;;;;;;;1.60;0.90;;;;;;;33.82;29.90;99967.97;5041497;28;20083;-85
2023/07/10 08:43:15;;;;;;;1.08;0.70;;;;;;;33.14;30.45;99971.56;5046143;28;20087;-84
2023/07/10 08:45:41;;;;;;;1.15;0.80;;;;;;;33.24;30.75;99980.53;5043604;28;20028;-85
2023/07/10 08:48:32;;;;;;;1.13;0.85;;;;;;;33.25;27.90;99978.66;5042366;28;20032;-84
2023/07/10 08:51:07;;;;;;;1.45;0.98;;;;;;;33.35;29.53;99938.38;5043096;28;20037;-85
2023/07/10 08:53:36;;;;;;;1.73;1.15;;;;;;;34.01;30.50;99976.88;5038329;28;20048;-83
2023/07/10 08:56:21;;;;;;;2.28;1.23;;;;;;;33.24;28.59;99950.47;5040683;28;20460;-83
2023/07/10 08:58:47;;;;;;;0.98;0.60;;;;;;;33.83;27.43;99958.75;5042118;28;20422;-82
2023/07/10 09:01:36;;;;;;;1.40;0.90;;;;;;;33.93;30.53;99958.56;5040647;28;20039;-83
2023/07/10 09:04:04;;;;;;;1.50;0.90;;;;;;;34.22;26.36;99952.63;5041707;28;20057;-82
2023/07/10 09:06:46;;;;;;;1.65;1.15;;;;;;;34.60;27.61;99985.84;5040835;28;20564;-85
2023/07/10 09:09:35;;;;;;;1.77;1.10;;;;;;;34.57;24.37;99971.63;5043868;28;20036;-85
2023/07/10 09:12:08;;;;;;;2.38;1.30;;;;;;;34.13;27.16;99969.22;5045405;28;20032;-84
2023/07/10 09:14:56;;;;;;;1.52;0.85;;;;;;;34.43;28.90;99974.06;5040437;28;20094;-83
2023/07/10 09:17:37;;;;;;;2.88;1.20;;;;;;;34.40;27.09;99968.91;5044131;28;20045;-82
2023/07/10 09:20:07;;;;;;;2.42;1.30;;;;;;;34.39;27.75;99964.47;5041754;28;20045;-84
2023/07/10 09:22:37;;;;;;;3.72;1.35;;;;;;;33.95;28.15;99934.63;5045027;28;20040;-86
2023/07/10 09:25:13;;;;;;;2.25;0.93;;;;;;;33.77;28.47;99947.59;5042592;28;20499;-85
2023/07/10 09:27:42;;;;;;;2.15;1.13;;;;;;;33.36;27.44;99930.00;5041985;28;20636;-83
2023/07/10 09:30:28;;;;;;;2.60;1.17;;;;;;;33.72;27.40;99959.91;5045294;28;20495;-84
2023/07/10 09:33:02;;;;;;;2.15;1.42;;;;;;;34.11;26.80;99943.88;5046482;28;20036;-84
2023/07/10 09:35:28;;;;;;;1.63;0.75;;;;;;;34.46;24.29;99956.41;5044323;28;20102;-83
2023/07/10 09:37:54;;;;;;;1.27;1.17;;;;;;;34.41;24.30;99935.03;5040432;28;20029;-87
2023/07/10 09:40:38;;;;;;;1.17;0.88;;;;;;;34.39;27.81;99949.94;5039830;28;20100;-86
2023/07/10 09:43:08;;;;;;;1.35;0.60;;;;;;;34.31;26.58;99937.09;5043401;28;20033;-86
2023/07/10 09:45:36;;;;;;;1.30;1.08;;;;;;;34.11;24.62;99894.63;5042803;28;20083;-84
2023/07/10 09:48:09;;;;;;;3.85;0.93;;;;;;;34.88;25.22;99949.00;5040971;28;21860;-87
2023/07/10 09:50:35;;;;;;;2.08;1.10;;;;;;;34.92;24.31;99923.84;5039807;28;20052;-87
2023/07/10 09:53:01;;;;;;;2.10;1.00;;;;;;;35.19;24.67;99950.97;5044667;28;20082;-88
2023/07/10 09:55:26;;;;;;;1.15;0.77;;;;;;;34.94;25.98;99949.19;5040912;28;20490;-90
2023/07/10 09:58:03;;;;;;;1.08;0.93;;;;;;;34.30;29.69;99896.22;5044968;28;20494;-87
2023/07/10 10:00:30;;;;;;;1.75;1.10;;;;;;;34.63;28.29;99907.09;5041799;28;20085;-89
2023/07/10 10:03:00;;;;;;;2.60;1.65;;;;;;;34.90;27.40;99936.03;5039441;28;20037;-89
2023/07/10 10:05:26;;;;;;;1.35;1.05;;;;;;;35.00;28.08;99914.72;5041691;28;20036;-90
2023/07/10 10:07:59;;;;;;;2.33;1.15;;;;;;;35.18;27.18;99924.63;5047118;28;20029;-89
2023/07/10 10:10:33;;;;;;;2.28;0.75;;;;;;;34.96;26.58;99919.72;5044313;28;20414;-88
2023/07/10 10:13:16;;;;;;;2.73;1.30;;;;;;;35.26;27.62;99927.34;5038108;28;20037;-88
2023/07/10 10:15:45;;;;;;;1.88;1.05;;;;;;;35.03;25.45;99930.81;5041202;28;20040;-89
2023/07/10 10:18:52;;;;;;;2.30;1.02;;;;;;;34.30;24.67;99868.84;5047392;28;20052;-87
2023/07/10 10:21:20;;;;;;;1.15;0.93;;;;;;;34.60;27.02;99880.91;5006372;28;20583;-83
2023/07/10 10:23:48;;;;;;;2.53;0.95;;;;;;;35.33;23.90;99909.16;4996633;28;20081;-85
2023/07/10 10:26:16;;;;;;;0.85;0.82;;;;;;;35.82;24.09;99916.25;5001844;28;20037;-86
2023/07/10 10:29:06;;;;;;;1.23;1.13;;;;;;;35.78;25.70;99902.06;4999198;28;20040;-86
2023/07/10 10:31:40;;;;;;;1.60;1.00;;;;;;;35.27;24.40;99882.47;5001670;28;20188;-87
2023/07/10 10:34:20;;;;;;;1.80;1.00;;;;;;;34.61;27.34;99868.94;5000313;28;20037;-87
2023/07/10 10:37:18;;;;;;;2.33;0.88;;;;;;;34.73;24.23;99878.50;5003716;28;20046;-85
2023/07/10 10:40:23;;;;;;;0.80;0.80;;;;;;;34.85;30.15;99897.31;4983249;28;20121;-86
2023/07/10 10:43:17;;;;;;;1.42;0.80;;;;;;;35.48;22.60;99896.41;4946231;29;20055;-85
2023/07/10 10:46:13;;;;;;;0.73;0.60;;;;;;;35.39;28.00;99880.16;4947180;28;20140;-85
2023/07/10 10:49:02;;;;;;;2.05;0.73;;;;;;;35.48;24.84;99871.72;4891878;29;20094;-82
2023/07/10 10:51:42;;;;;;;3.40;1.40;;;;;;;36.01;25.57;99887.50;4887861;29;20135;-84
2023/07/10 10:54:15;;;;;;;0.70;0.70;;;;;;;36.18;22.33;99880.81;4890322;29;20060;-81
2023/07/10 10:56:54;;;;;;;2.38;0.98;;;;;;;35.81;22.63;99865.19;4906717;29;20134;-81
2023/07/10 11:00:05;;;;;;;2.00;0.82;;;;;;;35.96;22.06;99862.47;4922040;29;20777;-80
2023/07/10 11:02:30;;;;;;;0.55;0.50;;;;;;;36.44;21.61;99871.34;4897155;29;20143;-81
2023/07/10 11:05:09;;;;;;;0.80;0.52;;;;;;;35.62;23.83;99856.38;4894020;29;20123;-82
2023/07/10 11:07:36;;;;;;;1.25;0.68;;;;;;;35.15;24.77;99862.78;4896284;29;20060;-83
2023/07/10 11:10:10;;;;;;;0.80;0.80;;;;;;;35.49;25.59;99873.41;4892582;29;22066;-83
2023/07/10 11:12:37;;;;;;;1.60;0.70;;;;;;;35.80;24.16;99871.69;4895159;29;20052;-80
2023/07/10 11:15:15;;;;;;;1.25;0.77;;;;;;;35.77;25.39;99859.19;4898723;29;20123;-81
2023/07/10 11:17:43;;;;;;;6.88;0.63;;;;;;;36.45;25.33;99844.72;4895558;29;20064;-82
2023/07/10 11:20:13;;;;;;;2.13;0.70;;;;;;;36.29;22.70;99821.03;4917440;29;20187;-82
2023/07/10 11:22:57;;;;;;;6.20;1.75;;;;;;;36.13;21.30;99820.13;4934473;29;20122;-81
2023/07/10 11:25:38;;;;;;;2.25;0.93;;;;;;;36.16;22.33;99829.88;4948730;28;20564;-82
2023/07/10 11:28:28;;;;;;;1.23;0.70;;;;;;;35.92;22.36;99826.31;4966536;28;20149;-82
2023/07/10 11:31:20;;;;;;;1.35;0.90;;;;;;;35.85;27.78;99836.31;4962737;28;20106;-80
2023/07/10 11:34:05;;;;;;;2.00;1.27;;;;;;;36.26;23.51;99829.66;4973303;28;20166;-81
2023/07/10 11:36:33;;;;;;;1.52;0.90;;;;;;;35.46;22.61;99846.34;4968243;28;20042;-82
2023/07/10 11:39:05;;;;;;;6.90;1.17;;;;;;;35.46;22.10;99837.28;4991905;28;20144;-87